Погода Акольманна 2 недели

Мехико, Мексика

29 мая-11 июня
  • 29мая
    Сегодня
    +14°
    +24°
    Небольшая облачность, возможен дождь с грозой
    ВремяПогодаТемператураВлажностьДавлениеВетер, м/сВероятность осадков
    00:00Ясно и безоблачно+16°C91 %591 мм1.8 м/с14 %
    03:00Ясно и безоблачно+17°C82 %590 мм1.0 м/с2 %
    06:00Ясно и безоблачно+15°C86 %589 мм0.9 м/с2 %
    09:00Ясно и безоблачно+18°C61 %591 мм1.3 м/с4 %
    12:00Практически безоблачно+22°C43 %592 мм2.8 м/с23 %
    15:00Небольшая облачность, возможен дождь с грозой+23°C41 %591 мм2.7 м/с32 %
    18:00Облачно с прояснениями+22°C51 %590 мм1.2 м/с36 %
    21:00Практически безоблачно+17°C72 %590 мм1.5 м/с18 %
  • 30мая
    Вторник
    +13°
    +27°
    Практически безоблачно
    ВремяПогодаТемператураВлажностьДавлениеВетер, м/сВероятность осадков
    00:00Ясно и безоблачно+17°C78 %590 мм1.6 м/с5 %
    03:00Ясно и безоблачно+16°C86 %589 мм1.0 м/с3 %
    06:00Ясно и безоблачно+15°C87 %589 мм1.2 м/с2 %
    09:00Ясно и безоблачно+18°C61 %591 мм0.3 м/с3 %
    12:00Ясно и безоблачно+23°C33 %591 мм1.0 м/с3 %
    15:00Практически безоблачно+26°C22 %590 мм3.2 м/с3 %
    18:00Облачно с прояснениями+25°C21 %589 мм4.0 м/с5 %
    21:00Ясно и безоблачно+18°C60 %589 мм3.2 м/с9 %
  • 31мая
    Среда
    +15°
    +27°
    Практически безоблачно
    ВремяПогодаТемператураВлажностьДавлениеВетер, м/сВероятность осадков
    00:00Ясно и безоблачно+17°C76 %590 мм1.0 м/с3 %
    03:00Ясно и безоблачно+16°C83 %589 мм1.0 м/с2 %
    06:00Ясно и безоблачно+13°C88 %588 мм0.9 м/с2 %
    09:00Ясно и безоблачно+19°C60 %591 мм2.0 м/с2 %
    12:00Ясно и безоблачно+24°C35 %592 мм1.1 м/с3 %
    15:00Практически безоблачно+26°C26 %590 мм3.2 м/с6 %
    18:00Небольшая облачность+25°C26 %589 мм4.3 м/с12 %
    21:00Ясно и безоблачно+21°C51 %590 мм0.2 м/с10 %
  • 01июня
    Четверг
    +15°
    +28°
    Облачно с прояснениями
    ВремяПогодаТемператураВлажностьДавлениеВетер, м/сВероятность осадков
    00:00Ясно и безоблачно+20°C61 %591 мм0.4 м/с3 %
    03:00Ясно и безоблачно+18°C70 %589 мм1.2 м/с2 %
    06:00Ясно и безоблачно+16°C79 %589 мм0.9 м/с2 %
    09:00Ясно и безоблачно+20°C52 %591 мм1.6 м/с2 %
    12:00Практически безоблачно+25°C34 %592 мм1.2 м/с3 %
    15:00Облачно с прояснениями+28°C26 %591 мм2.6 м/с7 %
    18:00Небольшая облачность, возможен дождь с грозой+27°C29 %591 мм2.5 м/с18 %
    21:00Ясно и безоблачно+21°C51 %590 мм1.7 м/с7 %
  • 02июня
    Пятница
    +15°
    +30°
    Небольшая облачность
    ВремяПогодаТемператураВлажностьДавлениеВетер, м/сВероятность осадков
    00:00Ясно и безоблачно+20°C63 %590 мм1.1 м/с2 %
    03:00Ясно и безоблачно+19°C64 %590 мм0.5 м/с2 %
    06:00Ясно и безоблачно+15°C75 %588 мм1.6 м/с2 %
    09:00Ясно и безоблачно+20°C49 %592 мм0.7 м/с2 %
    12:00Практически безоблачно+26°C30 %592 мм1.6 м/с2 %
    15:00Небольшая облачность+29°C19 %591 мм4.8 м/с3 %
    18:00Практически безоблачно+27°C20 %590 мм5.4 м/с4 %
    21:00Ясно и безоблачно+21°C58 %590 мм3.7 м/с2 %
Мы используем cookies
Соглашаюсь